sensor_id;sensor_type;location;lat;lon;timestamp;pressure;altitude;pressure_sealevel;temperature;humidity
44297;BME280;51842;47.450;8.654;2022-09-12T00:01:45;95619.47;;;10.02;100.00
44297;BME280;51842;47.450;8.654;2022-09-12T00:04:13;95622.66;;;10.04;100.00
44297;BME280;51842;47.450;8.654;2022-09-12T00:06:42;95620.31;;;10.13;100.00
44297;BME280;51842;47.450;8.654;2022-09-12T00:09:12;95613.94;;;10.19;100.00
44297;BME280;51842;47.450;8.654;2022-09-12T00:11:44;95614.22;;;10.23;100.00
44297;BME280;51842;47.450;8.654;2022-09-12T00:14:15;95614.25;;;10.28;100.00
44297;BME280;51842;47.450;8.654;2022-09-12T00:16:42;95618.25;;;10.30;100.00
44297;BME280;51842;47.450;8.654;2022-09-12T00:19:17;95609.47;;;10.30;100.00
44297;BME280;51842;47.450;8.654;2022-09-12T00:21:43;95612.66;;;10.27;100.00
44297;BME280;51842;47.450;8.654;2022-09-12T00:24:15;95621.72;;;10.31;100.00
44297;BME280;51842;47.450;8.654;2022-09-12T00:26:47;95624.94;;;10.33;100.00
44297;BME280;51842;47.450;8.654;2022-09-12T00:29:20;95624.38;;;10.31;99.42
44297;BME280;51842;47.450;8.654;2022-09-12T00:31:52;95625.66;;;10.23;98.50
44297;BME280;51842;47.450;8.654;2022-09-12T00:34:17;95623.78;;;10.13;98.09
44297;BME280;51842;47.450;8.654;2022-09-12T00:36:43;95613.63;;;10.05;98.90
44297;BME280;51842;47.450;8.654;2022-09-12T00:39:14;95614.41;;;10.01;98.98
44297;BME280;51842;47.450;8.654;2022-09-12T00:41:44;95611.19;;;9.93;99.30
44297;BME280;51842;47.450;8.654;2022-09-12T00:47:33;95601.59;;;9.92;100.00
44297;BME280;51842;47.450;8.654;2022-09-12T00:50:13;95597.03;;;9.83;100.00
44297;BME280;51842;47.450;8.654;2022-09-12T00:52:58;95602.03;;;9.74;100.00
44297;BME280;51842;47.450;8.654;2022-09-12T00:55:46;95597.25;;;9.76;100.00
44297;BME280;51842;47.450;8.654;2022-09-12T00:58:24;95590.88;;;9.77;100.00
44297;BME280;51842;47.450;8.654;2022-09-12T01:00:52;95597.81;;;9.78;100.00
44297;BME280;51842;47.450;8.654;2022-09-12T01:03:25;95597.03;;;9.83;100.00
44297;BME280;51842;47.450;8.654;2022-09-12T01:06:04;95590.13;;;9.87;100.00
44297;BME280;51842;47.450;8.654;2022-09-12T01:08:33;95595.75;;;9.90;100.00
44297;BME280;51842;47.450;8.654;2022-09-12T01:11:03;95589.34;;;9.91;100.00
44297;BME280;51842;47.450;8.654;2022-09-12T01:13:33;95587.50;;;9.92;100.00
44297;BME280;51842;47.450;8.654;2022-09-12T01:16:05;95592.00;;;9.91;100.00
44297;BME280;51842;47.450;8.654;2022-09-12T01:31:18;95580.88;;;10.05;100.00
44297;BME280;51842;47.450;8.654;2022-09-12T01:36:45;95569.44;;;10.04;100.00
44297;BME280;51842;47.450;8.654;2022-09-12T01:39:49;95566.78;;;10.04;100.00
44297;BME280;51842;47.450;8.654;2022-09-12T01:42:41;95572.91;;;10.05;100.00
44297;BME280;51842;47.450;8.654;2022-09-12T01:45:31;95561.72;;;10.03;100.00
44297;BME280;51842;47.450;8.654;2022-09-12T01:48:18;95562.53;;;10.03;100.00
44297;BME280;51842;47.450;8.654;2022-09-12T01:51:20;95561.72;;;10.03;100.00
44297;BME280;51842;47.450;8.654;2022-09-12T01:53:59;95557.44;;;10.02;100.00
44297;BME280;51842;47.450;8.654;2022-09-12T01:56:35;95564.38;;;10.03;100.00
44297;BME280;51842;47.450;8.654;2022-09-12T02:02:17;95563.84;;;10.06;100.00
44297;BME280;51842;47.450;8.654;2022-09-12T02:10:59;95559.81;;;9.93;100.00
44297;BME280;51842;47.450;8.654;2022-09-12T02:19:23;95564.25;;;9.72;100.00
44297;BME280;51842;47.450;8.654;2022-09-12T02:21:59;95557.84;;;9.63;100.00
44297;BME280;51842;47.450;8.654;2022-09-12T02:24:38;95561.53;;;9.57;99.77
44297;BME280;51842;47.450;8.654;2022-09-12T02:27:41;95555.09;;;9.47;100.00
44297;BME280;51842;47.450;8.654;2022-09-12T02:30:10;95551.88;;;9.45;100.00
44297;BME280;51842;47.450;8.654;2022-09-12T02:33:19;95548.72;;;9.48;100.00
44297;BME280;51842;47.450;8.654;2022-09-12T02:35:53;95553.28;;;9.53;100.00
44297;BME280;51842;47.450;8.654;2022-09-12T02:38:42;95560.75;;;9.61;100.00
44297;BME280;51842;47.450;8.654;2022-09-12T02:41:18;95551.72;;;9.62;100.00
44297;BME280;51842;47.450;8.654;2022-09-12T02:43:46;95546.38;;;9.57;100.00
44297;BME280;51842;47.450;8.654;2022-09-12T02:46:39;95544.47;;;9.53;100.00
44297;BME280;51842;47.450;8.654;2022-09-12T02:49:06;95542.88;;;9.52;100.00
44297;BME280;51842;47.450;8.654;2022-09-12T02:51:32;95545.81;;;9.50;100.00
44297;BME280;51842;47.450;8.654;2022-09-12T02:54:01;95549.22;;;9.40;100.00
44297;BME280;51842;47.450;8.654;2022-09-12T02:56:30;95547.59;;;9.34;100.00
44297;BME280;51842;47.450;8.654;2022-09-12T02:59:24;95544.34;;;9.27;100.00
44297;BME280;51842;47.450;8.654;2022-09-12T03:11:10;95544.75;;;9.09;100.00
44297;BME280;51842;47.450;8.654;2022-09-12T03:13:55;95543.38;;;9.01;100.00
44297;BME280;51842;47.450;8.654;2022-09-12T03:22:12;95545.06;;;8.80;100.00
44297;BME280;51842;47.450;8.654;2022-09-12T03:27:40;95543.69;;;8.72;100.00
44297;BME280;51842;47.450;8.654;2022-09-12T03:30:10;95543.41;;;8.69;100.00
44297;BME280;51842;47.450;8.654;2022-09-12T03:32:43;95555.03;;;8.63;100.00
44297;BME280;51842;47.450;8.654;2022-09-12T03:35:21;95549.66;;;8.57;100.00
44297;BME280;51842;47.450;8.654;2022-09-12T03:37:49;95545.41;;;8.56;100.00
44297;BME280;51842;47.450;8.654;2022-09-12T03:40:15;95558.69;;;8.56;100.00
44297;BME280;51842;47.450;8.654;2022-09-12T03:42:47;95552.88;;;8.60;100.00
44297;BME280;51842;47.450;8.654;2022-09-12T03:45:22;95546.78;;;8.59;100.00
44297;BME280;51842;47.450;8.654;2022-09-12T03:47:48;95550.16;;;8.54;100.00
44297;BME280;51842;47.450;8.654;2022-09-12T03:50:13;95558.41;;;8.53;100.00
44297;BME280;51842;47.450;8.654;2022-09-12T03:52:39;95549.66;;;8.52;100.00
44297;BME280;51842;47.450;8.654;2022-09-12T03:55:05;95546.44;;;8.50;100.00
44297;BME280;51842;47.450;8.654;2022-09-12T03:57:31;95545.13;;;8.53;100.00
44297;BME280;51842;47.450;8.654;2022-09-12T03:59:57;95542.47;;;8.53;100.00
44297;BME280;51842;47.450;8.654;2022-09-12T04:02:23;95539.75;;;8.48;100.00
44297;BME280;51842;47.450;8.654;2022-09-12T04:04:49;95543.78;;;8.50;100.00
44297;BME280;51842;47.450;8.654;2022-09-12T04:07:23;95539.75;;;8.48;100.00
44297;BME280;51842;47.450;8.654;2022-09-12T04:09:48;95545.00;;;8.43;100.00
44297;BME280;51842;47.450;8.654;2022-09-12T04:12:19;95545.97;;;8.37;100.00
44297;BME280;51842;47.450;8.654;2022-09-12T04:14:48;95550.75;;;8.34;100.00
44297;BME280;51842;47.450;8.654;2022-09-12T04:17:17;95549.66;;;8.30;100.00
44297;BME280;51842;47.450;8.654;2022-09-12T04:19:43;95553.34;;;8.29;100.00
44297;BME280;51842;47.450;8.654;2022-09-12T04:22:09;95556.56;;;8.31;100.00
44297;BME280;51842;47.450;8.654;2022-09-12T04:24:34;95555.28;;;8.34;100.00
44297;BME280;51842;47.450;8.654;2022-09-12T04:27:06;95556.81;;;8.30;100.00
44297;BME280;51842;47.450;8.654;2022-09-12T04:29:40;95560.72;;;8.22;100.00
44297;BME280;51842;47.450;8.654;2022-09-12T04:32:09;95556.66;;;8.15;100.00
44297;BME280;51842;47.450;8.654;2022-09-12T04:34:38;95560.44;;;8.19;100.00
44297;BME280;51842;47.450;8.654;2022-09-12T04:37:04;95553.56;;;8.23;100.00
44297;BME280;51842;47.450;8.654;2022-09-12T04:39:32;95554.34;;;8.23;100.00
44297;BME280;51842;47.450;8.654;2022-09-12T04:42:01;95556.72;;;8.20;100.00
44297;BME280;51842;47.450;8.654;2022-09-12T04:44:34;95557.22;;;8.17;100.00
44297;BME280;51842;47.450;8.654;2022-09-12T04:47:06;95554.50;;;8.11;100.00
44297;BME280;51842;47.450;8.654;2022-09-12T04:49:35;95551.53;;;8.08;100.00
44297;BME280;51842;47.450;8.654;2022-09-12T04:52:18;95556.06;;;8.07;100.00
44297;BME280;51842;47.450;8.654;2022-09-12T04:54:47;95554.94;;;8.03;100.00
44297;BME280;51842;47.450;8.654;2022-09-12T04:57:16;95555.44;;;8.00;100.00
44297;BME280;51842;47.450;8.654;2022-09-12T04:59:47;95550.16;;;8.00;100.00
44297;BME280;51842;47.450;8.654;2022-09-12T05:02:16;95547.22;;;8.02;100.00
44297;BME280;51842;47.450;8.654;2022-09-12T05:04:45;95555.50;;;8.05;100.00
44297;BME280;51842;47.450;8.654;2022-09-12T05:07:17;95558.97;;;8.06;100.00
44297;BME280;51842;47.450;8.654;2022-09-12T05:09:44;95553.41;;;8.07;100.00
44297;BME280;51842;47.450;8.654;2022-09-12T05:12:12;95565.44;;;8.15;100.00
44297;BME280;51842;47.450;8.654;2022-09-12T05:14:41;95565.47;;;8.20;100.00
44297;BME280;51842;47.450;8.654;2022-09-12T05:17:15;95564.25;;;8.28;100.00
44297;BME280;51842;47.450;8.654;2022-09-12T05:19:41;95560.03;;;8.32;100.00
44297;BME280;51842;47.450;8.654;2022-09-12T05:22:07;95567.81;;;8.39;100.00
44297;BME280;51842;47.450;8.654;2022-09-12T05:24:34;95560.44;;;8.46;100.00
44297;BME280;51842;47.450;8.654;2022-09-12T05:27:00;95568.75;;;8.54;100.00
44297;BME280;51842;47.450;8.654;2022-09-12T05:29:31;95570.41;;;8.61;100.00
44297;BME280;51842;47.450;8.654;2022-09-12T05:31:57;95572.31;;;8.65;100.00
44297;BME280;51842;47.450;8.654;2022-09-12T05:34:25;95567.84;;;8.71;100.00
44297;BME280;51842;47.450;8.654;2022-09-12T05:36:54;95569.19;;;8.73;100.00
44297;BME280;51842;47.450;8.654;2022-09-12T05:39:20;95570.31;;;8.77;100.00
44297;BME280;51842;47.450;8.654;2022-09-12T05:41:49;95566.88;;;8.82;100.00
44297;BME280;51842;47.450;8.654;2022-09-12T05:44:21;95562.34;;;8.83;100.00
44297;BME280;51842;47.450;8.654;2022-09-12T05:46:46;95566.59;;;8.84;100.00
44297;BME280;51842;47.450;8.654;2022-09-12T05:49:15;95574.63;;;8.89;100.00
44297;BME280;51842;47.450;8.654;2022-09-12T05:51:44;95579.50;;;8.97;100.00
44297;BME280;51842;47.450;8.654;2022-09-12T05:54:13;95577.13;;;9.06;100.00
44297;BME280;51842;47.450;8.654;2022-09-12T05:56:43;95588.91;;;9.15;100.00
44297;BME280;51842;47.450;8.654;2022-09-12T05:59:19;95584.97;;;9.22;100.00
44297;BME280;51842;47.450;8.654;2022-09-12T06:01:46;95593.78;;;9.28;100.00
44297;BME280;51842;47.450;8.654;2022-09-12T06:04:13;95591.16;;;9.33;100.00
44297;BME280;51842;47.450;8.654;2022-09-12T06:06:44;95593.34;;;9.41;100.00
44297;BME280;51842;47.450;8.654;2022-09-12T06:09:13;95593.66;;;9.50;100.00
44297;BME280;51842;47.450;8.654;2022-09-12T06:11:46;95597.97;;;9.61;100.00
44297;BME280;51842;47.450;8.654;2022-09-12T06:14:14;95597.78;;;9.73;100.00
44297;BME280;51842;47.450;8.654;2022-09-12T06:16:44;95592.78;;;9.82;100.00
44297;BME280;51842;47.450;8.654;2022-09-12T06:19:19;95595.19;;;9.88;100.00
44297;BME280;51842;47.450;8.654;2022-09-12T06:21:48;95593.63;;;9.98;100.00
44297;BME280;51842;47.450;8.654;2022-09-12T06:24:20;95592.09;;;10.17;100.00
44297;BME280;51842;47.450;8.654;2022-09-12T06:26:52;95595.19;;;10.56;100.00
44297;BME280;51842;47.450;8.654;2022-09-12T06:29:18;95599.72;;;10.97;100.00
44297;BME280;51842;47.450;8.654;2022-09-12T06:31:47;95594.13;;;11.44;100.00
44297;BME280;51842;47.450;8.654;2022-09-12T06:34:18;95591.34;;;11.90;100.00
44297;BME280;51842;47.450;8.654;2022-09-12T06:36:48;95596.81;;;12.35;100.00
44297;BME280;51842;47.450;8.654;2022-09-12T06:39:20;95596.59;;;12.65;100.00
44297;BME280;51842;47.450;8.654;2022-09-12T06:41:55;95596.94;;;12.98;100.00
44297;BME280;51842;47.450;8.654;2022-09-12T06:44:22;95593.81;;;13.20;100.00
44297;BME280;51842;47.450;8.654;2022-09-12T06:46:47;95598.75;;;13.42;100.00
44297;BME280;51842;47.450;8.654;2022-09-12T06:49:39;95590.16;;;13.69;99.02
44297;BME280;51842;47.450;8.654;2022-09-12T06:52:14;95595.84;;;13.92;98.27
44297;BME280;51842;47.450;8.654;2022-09-12T06:54:40;95594.78;;;14.11;97.30
44297;BME280;51842;47.450;8.654;2022-09-12T06:57:08;95601.88;;;14.45;95.47
44297;BME280;51842;47.450;8.654;2022-09-12T06:59:33;95599.50;;;14.63;89.89
44297;BME280;51842;47.450;8.654;2022-09-12T07:02:02;95596.59;;;14.97;88.84
44297;BME280;51842;47.450;8.654;2022-09-12T07:04:28;95594.28;;;14.90;81.08
44297;BME280;51842;47.450;8.654;2022-09-12T07:06:59;95594.53;;;15.26;79.11
44297;BME280;51842;47.450;8.654;2022-09-12T07:09:28;95601.63;;;15.69;77.44
44297;BME280;51842;47.450;8.654;2022-09-12T07:11:55;95606.50;;;15.94;74.25
44297;BME280;51842;47.450;8.654;2022-09-12T07:14:27;95595.66;;;16.13;72.33
44297;BME280;51842;47.450;8.654;2022-09-12T07:16:53;95604.00;;;16.53;71.00
44297;BME280;51842;47.450;8.654;2022-09-12T07:19:19;95602.03;;;16.95;69.57
44297;BME280;51842;47.450;8.654;2022-09-12T07:21:47;95600.09;;;17.09;65.70
44297;BME280;51842;47.450;8.654;2022-09-12T07:24:22;95596.34;;;17.42;66.43
44297;BME280;51842;47.450;8.654;2022-09-12T07:26:48;95599.81;;;17.65;65.59
44297;BME280;51842;47.450;8.654;2022-09-12T07:29:16;95595.69;;;17.98;64.91
44297;BME280;51842;47.450;8.654;2022-09-12T07:31:48;95600.59;;;18.27;62.43
44297;BME280;51842;47.450;8.654;2022-09-12T07:34:14;95597.63;;;18.64;61.81
44297;BME280;51842;47.450;8.654;2022-09-12T07:36:39;95601.66;;;18.84;61.36
44297;BME280;51842;47.450;8.654;2022-09-12T07:39:11;95588.97;;;19.02;59.02
44297;BME280;51842;47.450;8.654;2022-09-12T07:41:37;95594.81;;;19.30;59.19
44297;BME280;51842;47.450;8.654;2022-09-12T07:44:06;95597.63;;;19.59;58.58
44297;BME280;51842;47.450;8.654;2022-09-12T07:46:34;95596.19;;;19.79;57.26
44297;BME280;51842;47.450;8.654;2022-09-12T07:49:03;95592.44;;;20.01;56.18
44297;BME280;51842;47.450;8.654;2022-09-12T07:51:41;95593.59;;;20.30;56.53
44297;BME280;51842;47.450;8.654;2022-09-12T07:54:08;95592.38;;;20.19;54.80
44297;BME280;51842;47.450;8.654;2022-09-12T07:56:34;95585.03;;;20.49;53.35
44297;BME280;51842;47.450;8.654;2022-09-12T07:59:00;95589.47;;;20.83;53.34
44297;BME280;51842;47.450;8.654;2022-09-12T08:01:32;95593.03;;;20.96;54.26
44297;BME280;51842;47.450;8.654;2022-09-12T08:04:01;95590.25;;;21.25;51.79
44297;BME280;51842;47.450;8.654;2022-09-12T08:06:35;95590.53;;;21.66;50.91
44297;BME280;51842;47.450;8.654;2022-09-12T08:09:04;95584.47;;;21.93;48.95
44297;BME280;51842;47.450;8.654;2022-09-12T08:11:34;95581.34;;;22.04;50.17
44297;BME280;51842;47.450;8.654;2022-09-12T08:14:02;95586.56;;;22.33;48.01
44297;BME280;51842;47.450;8.654;2022-09-12T08:16:45;95587.47;;;22.25;48.40
44297;BME280;51842;47.450;8.654;2022-09-12T08:19:10;95589.28;;;22.33;48.17
44297;BME280;51842;47.450;8.654;2022-09-12T08:21:36;95584.97;;;22.32;47.96
44297;BME280;51842;47.450;8.654;2022-09-12T08:24:11;95591.97;;;22.21;48.14
44297;BME280;51842;47.450;8.654;2022-09-12T08:26:40;95591.31;;;22.49;47.77
44297;BME280;51842;47.450;8.654;2022-09-12T08:29:24;95595.56;;;22.74;47.42
44297;BME280;51842;47.450;8.654;2022-09-12T08:31:50;95596.44;;;23.03;47.39
44297;BME280;51842;47.450;8.654;2022-09-12T08:34:16;95600.97;;;23.39;47.63
44297;BME280;51842;47.450;8.654;2022-09-12T08:36:46;95597.41;;;23.51;44.89
44297;BME280;51842;47.450;8.654;2022-09-12T08:39:15;95594.00;;;23.82;45.42
44297;BME280;51842;47.450;8.654;2022-09-12T08:41:45;95599.13;;;23.71;46.35
44297;BME280;51842;47.450;8.654;2022-09-12T08:58:03;95595.56;;;24.62;43.46
44297;BME280;51842;47.450;8.654;2022-09-12T09:07:59;95596.97;;;25.27;42.73
44297;BME280;51842;47.450;8.654;2022-09-12T09:16:47;95593.91;;;26.13;40.70
44297;BME280;51842;47.450;8.654;2022-09-12T09:19:43;95587.69;;;26.36;40.84
44297;BME280;51842;47.450;8.654;2022-09-12T09:22:58;95585.31;;;26.11;41.33
44297;BME280;51842;47.450;8.654;2022-09-12T09:26:05;95584.31;;;26.23;41.50
44297;BME280;51842;47.450;8.654;2022-09-12T09:28:45;95589.72;;;26.42;41.26
44297;BME280;51842;47.450;8.654;2022-09-12T09:31:24;95594.06;;;26.47;40.27
44297;BME280;51842;47.450;8.654;2022-09-12T09:33:54;95592.50;;;26.46;40.03
44297;BME280;51842;47.450;8.654;2022-09-12T09:45:23;95581.34;;;26.81;39.40
44297;BME280;51842;47.450;8.654;2022-09-12T09:48:30;95580.50;;;27.07;39.57
44297;BME280;51842;47.450;8.654;2022-09-12T09:51:02;95575.28;;;26.95;40.03
44297;BME280;51842;47.450;8.654;2022-09-12T09:56:40;95573.28;;;27.18;39.15
44297;BME280;51842;47.450;8.654;2022-09-12T09:59:31;95574.34;;;27.44;36.74
44297;BME280;51842;47.450;8.654;2022-09-12T10:05:15;95575.34;;;26.45;38.85
44297;BME280;51842;47.450;8.654;2022-09-12T10:07:49;95569.00;;;26.41;39.53
44297;BME280;51842;47.450;8.654;2022-09-12T10:10:18;95573.63;;;26.87;38.93
44297;BME280;51842;47.450;8.654;2022-09-12T10:12:47;95567.41;;;26.90;39.08
44297;BME280;51842;47.450;8.654;2022-09-12T10:15:24;95565.16;;;26.69;39.35
44297;BME280;51842;47.450;8.654;2022-09-12T10:17:54;95568.91;;;27.14;37.82
44297;BME280;51842;47.450;8.654;2022-09-12T10:20:41;95567.97;;;27.70;37.63
44297;BME280;51842;47.450;8.654;2022-09-12T10:25:59;95572.59;;;27.96;36.75
44297;BME280;51842;47.450;8.654;2022-09-12T10:28:45;95569.59;;;28.12;37.00
44297;BME280;51842;47.450;8.654;2022-09-12T10:31:35;95563.84;;;27.80;37.36
44297;BME280;51842;47.450;8.654;2022-09-12T10:34:21;95560.09;;;27.99;38.11
44297;BME280;51842;47.450;8.654;2022-09-12T10:36:57;95559.41;;;28.12;38.98
44297;BME280;51842;47.450;8.654;2022-09-12T10:39:25;95556.66;;;28.09;37.12
44297;BME280;51842;47.450;8.654;2022-09-12T10:41:51;95553.75;;;27.91;38.18
44297;BME280;51842;47.450;8.654;2022-09-12T10:44:40;95552.63;;;27.96;38.11
44297;BME280;51842;47.450;8.654;2022-09-12T10:47:30;95555.72;;;28.38;36.83
44297;BME280;51842;47.450;8.654;2022-09-12T10:50:35;95549.59;;;28.56;37.78
44297;BME280;51842;47.450;8.654;2022-09-12T10:53:39;95553.63;;;28.76;37.72
44297;BME280;51842;47.450;8.654;2022-09-12T10:56:26;95553.88;;;29.12;36.56
44297;BME280;51842;47.450;8.654;2022-09-12T11:08:18;95552.00;;;29.41;37.01
44297;BME280;51842;47.450;8.654;2022-09-12T11:14:13;95535.97;;;29.54;34.70
44297;BME280;51842;47.450;8.654;2022-09-12T11:20:13;95533.75;;;30.20;34.85
44297;BME280;51842;47.450;8.654;2022-09-12T11:22:54;95532.53;;;30.11;34.73
44297;BME280;51842;47.450;8.654;2022-09-12T11:31:31;95531.31;;;30.73;31.23
44297;BME280;51842;47.450;8.654;2022-09-12T11:34:09;95525.84;;;30.73;32.42
44297;BME280;51842;47.450;8.654;2022-09-12T11:36:53;95520.00;;;30.53;32.17
44297;BME280;51842;47.450;8.654;2022-09-12T11:39:46;95520.72;;;30.75;33.36
44297;BME280;51842;47.450;8.654;2022-09-12T11:42:24;95512.13;;;30.55;31.51
44297;BME280;51842;47.450;8.654;2022-09-12T11:45:23;95518.41;;;30.62;33.31
44297;BME280;51842;47.450;8.654;2022-09-12T11:47:57;95523.84;;;30.77;32.37
44297;BME280;51842;47.450;8.654;2022-09-12T11:50:30;95517.59;;;30.87;32.22
44297;BME280;51842;47.450;8.654;2022-09-12T11:53:30;95517.97;;;30.67;33.04
44297;BME280;51842;47.450;8.654;2022-09-12T11:56:18;95518.38;;;30.66;32.39
44297;BME280;51842;47.450;8.654;2022-09-12T11:58:56;95508.16;;;30.84;32.12
44297;BME280;51842;47.450;8.654;2022-09-12T12:01:41;95508.44;;;31.08;31.95
44297;BME280;51842;47.450;8.654;2022-09-12T12:04:18;95509.69;;;30.89;31.74
44297;BME280;51842;47.450;8.654;2022-09-12T12:07:11;95510.97;;;30.56;32.26
44297;BME280;51842;47.450;8.654;2022-09-12T12:09:51;95506.25;;;30.56;32.62
44297;BME280;51842;47.450;8.654;2022-09-12T12:12:30;95500.75;;;30.53;33.23
44297;BME280;51842;47.450;8.654;2022-09-12T12:14:57;95495.53;;;31.01;31.79
44297;BME280;51842;47.450;8.654;2022-09-12T12:17:25;95489.00;;;31.51;30.95
44297;BME280;51842;47.450;8.654;2022-09-12T12:20:03;95496.44;;;31.57;31.06
44297;BME280;51842;47.450;8.654;2022-09-12T12:22:32;95490.38;;;31.84;30.48
44297;BME280;51842;47.450;8.654;2022-09-12T12:27:59;95494.75;;;31.74;30.03
44297;BME280;51842;47.450;8.654;2022-09-12T12:36:04;95486.38;;;32.37;29.65
44297;BME280;51842;47.450;8.654;2022-09-12T12:38:38;95481.50;;;32.56;27.94
44297;BME280;51842;47.450;8.654;2022-09-12T12:43:53;95479.09;;;32.20;29.35
44297;BME280;51842;47.450;8.654;2022-09-12T12:46:26;95480.25;;;32.22;28.73
44297;BME280;51842;47.450;8.654;2022-09-12T12:49:34;95470.50;;;32.11;27.99
44297;BME280;51842;47.450;8.654;2022-09-12T12:52:15;95464.25;;;31.51;29.55
44297;BME280;51842;47.450;8.654;2022-09-12T13:00:24;95458.00;;;32.82;27.41
44297;BME280;51842;47.450;8.654;2022-09-12T13:05:47;95450.06;;;32.53;27.64
44297;BME280;51842;47.450;8.654;2022-09-12T13:11:15;95448.00;;;32.61;27.29
44297;BME280;51842;47.450;8.654;2022-09-12T13:14:04;95440.50;;;32.61;27.33
44297;BME280;51842;47.450;8.654;2022-09-12T13:16:34;95436.09;;;33.02;29.16
44297;BME280;51842;47.450;8.654;2022-09-12T13:19:18;95428.94;;;33.08;26.54
44297;BME280;51842;47.450;8.654;2022-09-12T13:22:04;95429.44;;;32.95;28.00
44297;BME280;51842;47.450;8.654;2022-09-12T13:24:46;95431.09;;;32.55;26.19
44297;BME280;51842;47.450;8.654;2022-09-12T13:27:24;95424.03;;;32.54;27.17
44297;BME280;51842;47.450;8.654;2022-09-12T13:30:13;95416.47;;;32.62;26.55
44297;BME280;51842;47.450;8.654;2022-09-12T13:32:43;95432.63;;;32.98;25.68
44297;BME280;51842;47.450;8.654;2022-09-12T13:35:48;95410.03;;;33.06;25.11
44297;BME280;51842;47.450;8.654;2022-09-12T13:45:10;95409.09;;;32.86;26.64
44297;BME280;51842;47.450;8.654;2022-09-12T13:48:01;95411.03;;;32.89;26.91
44297;BME280;51842;47.450;8.654;2022-09-12T13:50:56;95405.47;;;32.58;26.28
44297;BME280;51842;47.450;8.654;2022-09-12T13:53:45;95396.69;;;31.95;27.36
44297;BME280;51842;47.450;8.654;2022-09-12T13:56:25;95392.97;;;31.64;27.91
44297;BME280;51842;47.450;8.654;2022-09-12T13:59:00;95393.44;;;32.03;29.25
44297;BME280;51842;47.450;8.654;2022-09-12T14:01:42;95387.97;;;32.38;28.88
44297;BME280;51842;47.450;8.654;2022-09-12T14:04:28;95393.69;;;32.58;28.55
44297;BME280;51842;47.450;8.654;2022-09-12T14:09:57;95391.00;;;32.51;26.86
44297;BME280;51842;47.450;8.654;2022-09-12T14:12:36;95391.69;;;32.58;28.84
44297;BME280;51842;47.450;8.654;2022-09-12T14:15:25;95391.47;;;32.42;26.81
44297;BME280;51842;47.450;8.654;2022-09-12T14:17:58;95388.97;;;32.17;26.83
44297;BME280;51842;47.450;8.654;2022-09-12T14:20:37;95386.81;;;31.97;27.04
44297;BME280;51842;47.450;8.654;2022-09-12T14:23:30;95389.50;;;32.05;27.93
44297;BME280;51842;47.450;8.654;2022-09-12T14:26:01;95387.88;;;32.11;27.98
44297;BME280;51842;47.450;8.654;2022-09-12T14:28:33;95384.88;;;32.32;27.86
44297;BME280;51842;47.450;8.654;2022-09-12T14:31:21;95381.59;;;32.48;27.19
44297;BME280;51842;47.450;8.654;2022-09-12T14:33:52;95375.16;;;32.20;26.75
44297;BME280;51842;47.450;8.654;2022-09-12T14:39:19;95378.19;;;32.33;27.10
44297;BME280;51842;47.450;8.654;2022-09-12T14:41:48;95378.13;;;32.37;26.61
44297;BME280;51842;47.450;8.654;2022-09-12T14:44:38;95371.75;;;32.09;26.62
44297;BME280;51842;47.450;8.654;2022-09-12T14:47:23;95368.88;;;32.20;26.08
44297;BME280;51842;47.450;8.654;2022-09-12T14:49:59;95367.88;;;32.41;26.63
44297;BME280;51842;47.450;8.654;2022-09-12T14:52:32;95372.72;;;32.30;26.14
44297;BME280;51842;47.450;8.654;2022-09-12T14:57:45;95367.72;;;32.55;26.68
44297;BME280;51842;47.450;8.654;2022-09-12T15:00:20;95366.28;;;32.40;26.51
44297;BME280;51842;47.450;8.654;2022-09-12T15:02:49;95369.75;;;32.51;27.72
44297;BME280;51842;47.450;8.654;2022-09-12T15:05:20;95366.13;;;32.88;25.55
44297;BME280;51842;47.450;8.654;2022-09-12T15:07:57;95356.59;;;32.93;27.87
44297;BME280;51842;47.450;8.654;2022-09-12T15:10:36;95358.16;;;32.94;27.37
44297;BME280;51842;47.450;8.654;2022-09-12T15:15:42;95360.84;;;32.70;26.45
44297;BME280;51842;47.450;8.654;2022-09-12T15:18:11;95362.09;;;32.93;25.33
44297;BME280;51842;47.450;8.654;2022-09-12T15:20:43;95358.78;;;32.78;24.88
44297;BME280;51842;47.450;8.654;2022-09-12T15:23:35;95352.88;;;33.07;24.37
44297;BME280;51842;47.450;8.654;2022-09-12T15:26:12;95351.31;;;33.33;24.50
44297;BME280;51842;47.450;8.654;2022-09-12T15:28:39;95343.56;;;33.51;26.70
44297;BME280;51842;47.450;8.654;2022-09-12T15:31:25;95348.91;;;33.35;23.58
44297;BME280;51842;47.450;8.654;2022-09-12T15:34:00;95352.22;;;33.53;25.49
44297;BME280;51842;47.450;8.654;2022-09-12T15:36:32;95350.88;;;33.34;25.91
44297;BME280;51842;47.450;8.654;2022-09-12T15:39:09;95345.81;;;33.56;24.84
44297;BME280;51842;47.450;8.654;2022-09-12T15:41:37;95342.19;;;33.63;25.18
44297;BME280;51842;47.450;8.654;2022-09-12T15:44:11;95340.88;;;33.44;26.46
44297;BME280;51842;47.450;8.654;2022-09-12T15:46:38;95348.59;;;33.29;26.46
44297;BME280;51842;47.450;8.654;2022-09-12T15:49:10;95339.03;;;33.10;25.22
44297;BME280;51842;47.450;8.654;2022-09-12T15:51:36;95334.25;;;32.84;26.56
44297;BME280;51842;47.450;8.654;2022-09-12T15:54:04;95333.41;;;32.87;25.64
44297;BME280;51842;47.450;8.654;2022-09-12T15:56:30;95331.44;;;32.60;27.18
44297;BME280;51842;47.450;8.654;2022-09-12T15:58:56;95336.22;;;32.83;26.35
44297;BME280;51842;47.450;8.654;2022-09-12T16:01:22;95334.34;;;32.46;27.10
44297;BME280;51842;47.450;8.654;2022-09-12T16:03:48;95331.81;;;32.24;28.15
44297;BME280;51842;47.450;8.654;2022-09-12T16:06:14;95337.13;;;32.08;28.95
44297;BME280;51842;47.450;8.654;2022-09-12T16:08:40;95330.59;;;31.95;28.11
44297;BME280;51842;47.450;8.654;2022-09-12T16:11:26;95327.03;;;31.53;28.54
44297;BME280;51842;47.450;8.654;2022-09-12T16:13:53;95327.69;;;31.16;29.40
44297;BME280;51842;47.450;8.654;2022-09-12T16:16:20;95323.72;;;31.20;29.58
44297;BME280;51842;47.450;8.654;2022-09-12T16:18:45;95323.38;;;31.11;29.01